createdAt,value
2022-09-29T00:01:07.774Z,28.60
2022-09-29T00:03:50.080Z,28.80
2022-09-29T00:06:32.387Z,28.90
2022-09-29T00:09:14.076Z,28.60
2022-09-29T00:11:56.688Z,25.10
2022-09-29T00:14:38.482Z,27.80
2022-09-29T00:17:20.275Z,26.70
2022-09-29T00:20:01.965Z,23.80
2022-09-29T00:22:43.659Z,26.70
2022-09-29T00:25:25.374Z,28.40
2022-09-29T00:28:07.142Z,29.70
2022-09-29T00:30:48.831Z,27.50
2022-09-29T00:33:35.853Z,28.30
2022-09-29T00:36:19.995Z,36.60
2022-09-29T00:39:01.686Z,28.80
2022-09-29T00:41:43.582Z,31.30
2022-09-29T00:44:25.170Z,32.60
2022-09-29T00:47:07.066Z,28.50
2022-09-29T00:49:59.147Z,29.20
2022-09-29T00:52:46.935Z,26.90
2022-09-29T00:55:34.880Z,29.70
2022-09-29T00:58:39.911Z,27.50
2022-09-29T01:01:23.540Z,30.50
2022-09-29T01:04:11.799Z,28.20
2022-09-29T01:06:57.476Z,28.30
2022-09-29T01:09:42.869Z,29.90
2022-09-29T01:12:24.751Z,34.40
2022-09-29T01:15:07.360Z,30.00
2022-09-29T01:17:49.871Z,30.50
2022-09-29T01:20:38.083Z,32.50
2022-09-29T01:23:33.733Z,31.00
2022-09-29T01:26:40.018Z,32.40
2022-09-29T01:29:24.681Z,28.30
2022-09-29T01:32:24.071Z,34.70
2022-09-29T01:35:20.094Z,29.20
2022-09-29T01:38:36.089Z,33.60
2022-09-29T01:41:33.652Z,30.50
2022-09-29T01:44:27.631Z,30.70
2022-09-29T01:47:28.375Z,31.90
2022-09-29T01:50:21.735Z,31.10
2022-09-29T01:53:09.281Z,35.60
2022-09-29T01:55:56.380Z,33.30
2022-09-29T01:58:54.456Z,31.90
2022-09-29T02:01:42.139Z,30.90
2022-09-29T02:04:29.612Z,42.00
2022-09-29T02:07:21.138Z,35.90
2022-09-29T02:10:11.120Z,37.20
2022-09-29T02:12:54.448Z,35.70
2022-09-29T02:15:40.644Z,37.20
2022-09-29T02:18:24.512Z,35.30
2022-09-29T02:21:06.387Z,37.40
2022-09-29T02:23:48.788Z,40.90
2022-09-29T02:26:37.546Z,39.50
2022-09-29T02:29:19.954Z,34.70
2022-09-29T02:32:06.254Z,37.30
2022-09-29T02:34:52.350Z,39.60
2022-09-29T02:37:56.772Z,47.70
2022-09-29T02:40:51.526Z,40.40
2022-09-29T02:43:49.916Z,41.50
2022-09-29T02:46:46.097Z,39.80
2022-09-29T02:49:33.417Z,43.20
2022-09-29T02:52:31.990Z,43.20
2022-09-29T02:55:21.054Z,43.90
2022-09-29T02:58:18.821Z,43.00
2022-09-29T03:01:01.004Z,41.10
2022-09-29T03:03:43.456Z,45.90
2022-09-29T03:06:25.431Z,50.80
2022-09-29T03:09:07.122Z,44.80
2022-09-29T03:11:48.813Z,38.80
2022-09-29T03:14:30.504Z,39.40
2022-09-29T03:17:12.401Z,39.30
2022-09-29T03:19:54.010Z,40.30
2022-09-29T03:22:35.780Z,38.70
2022-09-29T03:25:17.676Z,44.00
2022-09-29T03:27:59.369Z,38.30
2022-09-29T03:30:40.956Z,44.90
2022-09-29T03:33:22.751Z,44.30
2022-09-29T03:36:06.181Z,41.40
2022-09-29T03:38:47.876Z,53.60
2022-09-29T03:41:29.493Z,45.90
2022-09-29T03:44:11.152Z,46.30
2022-09-29T03:46:52.944Z,47.00
2022-09-29T03:49:35.863Z,43.80
2022-09-29T03:52:17.554Z,42.10
2022-09-29T03:54:59.247Z,34.10
2022-09-29T03:57:40.937Z,35.40
2022-09-29T04:00:22.628Z,32.00
2022-09-29T04:03:04.628Z,39.00
2022-09-29T04:05:47.648Z,37.80
2022-09-29T04:08:29.749Z,35.80
2022-09-29T04:11:11.444Z,37.30
2022-09-29T04:13:54.768Z,36.90
2022-09-29T04:16:36.520Z,105.30
2022-09-29T04:19:18.495Z,50.90
2022-09-29T04:22:00.353Z,54.80
2022-09-29T04:24:42.044Z,70.00
2022-09-29T04:27:23.735Z,56.80
2022-09-29T04:30:06.890Z,58.10
2022-09-29T04:32:49.276Z,84.20
2022-09-29T04:35:36.092Z,93.90
2022-09-29T04:38:18.588Z,54.30
2022-09-29T04:41:02.058Z,50.40
2022-09-29T04:43:44.387Z,43.80
2022-09-29T04:46:26.016Z,49.20
2022-09-29T04:49:07.914Z,42.90
2022-09-29T04:51:49.606Z,50.50
2022-09-29T04:54:37.880Z,47.10
2022-09-29T04:57:19.895Z,45.70
2022-09-29T05:00:02.048Z,48.80
2022-09-29T05:02:48.885Z,46.90
2022-09-29T05:05:31.472Z,47.90
2022-09-29T05:08:13.163Z,45.50
2022-09-29T05:10:54.854Z,50.10
2022-09-29T05:13:37.467Z,43.50
2022-09-29T05:16:19.434Z,46.30
2022-09-29T05:19:01.564Z,53.30
2022-09-29T05:21:43.256Z,54.50
2022-09-29T05:24:25.868Z,61.60
2022-09-29T05:27:07.768Z,55.50
2022-09-29T05:29:50.069Z,58.30
2022-09-29T05:32:32.169Z,60.20
2022-09-29T05:35:13.964Z,49.90
2022-09-29T05:37:55.598Z,41.50
2022-09-29T05:40:37.601Z,45.70
2022-09-29T05:43:22.516Z,42.60
2022-09-29T05:46:06.704Z,47.20
2022-09-29T05:48:51.535Z,42.30
2022-09-29T05:51:33.324Z,40.90
2022-09-29T05:54:15.014Z,41.00
2022-09-29T05:56:56.809Z,43.30
2022-09-29T05:59:38.710Z,39.30
2022-09-29T06:02:20.420Z,40.70
2022-09-29T06:05:02.190Z,39.50
2022-09-29T06:07:43.879Z,39.30
2022-09-29T06:10:25.475Z,39.80
2022-09-29T06:13:07.774Z,36.90
2022-09-29T06:15:49.465Z,35.20
2022-09-29T06:18:31.667Z,37.10
2022-09-29T06:21:18.990Z,40.30
2022-09-29T06:24:01.397Z,35.80
2022-09-29T06:26:43.190Z,41.00
2022-09-29T06:29:25.000Z,45.40
2022-09-29T06:32:06.814Z,40.60
2022-09-29T06:35:08.029Z,42.50
2022-09-29T06:40:32.371Z,43.00
2022-09-29T06:43:14.226Z,45.20
2022-09-29T06:45:55.967Z,40.60
2022-09-29T06:48:37.914Z,38.20
2022-09-29T06:51:22.781Z,38.60
2022-09-29T06:54:11.340Z,33.70
2022-09-29T06:56:55.711Z,35.10
2022-09-29T06:59:42.503Z,36.60
2022-09-29T07:02:25.040Z,42.00
2022-09-29T07:05:06.902Z,40.00
2022-09-29T07:07:52.205Z,41.30
2022-09-29T07:10:35.917Z,42.20
2022-09-29T07:13:17.607Z,41.40
2022-09-29T07:16:12.175Z,80.50
2022-09-29T07:18:53.993Z,44.40
2022-09-29T07:21:35.685Z,38.80
2022-09-29T07:24:17.887Z,41.00
2022-09-29T07:27:00.125Z,53.40
2022-09-29T07:29:41.955Z,46.10
2022-09-29T07:32:28.307Z,41.80
2022-09-29T07:35:10.384Z,48.00
2022-09-29T07:37:55.203Z,40.10
2022-09-29T07:40:38.210Z,45.20
2022-09-29T07:43:20.213Z,39.00
2022-09-29T07:46:02.972Z,43.70
2022-09-29T07:48:44.781Z,40.00
2022-09-29T07:51:26.782Z,51.00
2022-09-29T07:54:08.672Z,42.80
2022-09-29T07:56:50.371Z,36.40
2022-09-29T07:59:32.159Z,46.70
2022-09-29T08:02:13.880Z,41.50
2022-09-29T08:05:00.660Z,33.60
2022-09-29T08:07:44.089Z,36.80
2022-09-29T08:10:27.316Z,35.20
2022-09-29T08:13:09.419Z,34.50
2022-09-29T08:15:58.215Z,39.40
2022-09-29T08:18:40.377Z,32.60
2022-09-29T08:21:22.855Z,39.60
2022-09-29T08:24:06.012Z,30.90
2022-09-29T08:26:48.214Z,31.50
2022-09-29T08:29:42.834Z,33.60
2022-09-29T08:32:28.287Z,30.70
2022-09-29T08:35:09.980Z,32.10
2022-09-29T08:37:55.217Z,28.10
2022-09-29T08:40:36.927Z,31.70
2022-09-29T08:43:48.163Z,31.60
2022-09-29T08:46:39.704Z,23.90
2022-09-29T08:49:33.337Z,31.30
2022-09-29T08:52:46.530Z,29.90
2022-09-29T08:55:46.878Z,30.10
2022-09-29T08:58:28.978Z,29.60
2022-09-29T09:01:28.221Z,27.60
2022-09-29T09:04:12.839Z,26.90
2022-09-29T09:07:00.470Z,28.20
2022-09-29T09:10:10.936Z,35.60
2022-09-29T09:13:13.312Z,43.60
2022-09-29T09:16:19.000Z,33.30
2022-09-29T09:19:29.330Z,26.50
2022-09-29T09:22:25.481Z,27.20
2022-09-29T09:25:28.141Z,23.60
2022-09-29T09:31:33.711Z,24.30
2022-09-29T09:34:44.894Z,28.00
2022-09-29T09:37:33.347Z,29.20
2022-09-29T09:40:20.631Z,21.40
2022-09-29T09:43:18.750Z,22.70
2022-09-29T09:46:34.615Z,22.80
2022-09-29T09:49:26.322Z,20.90
2022-09-29T09:52:45.018Z,17.70
2022-09-29T09:55:27.529Z,17.50
2022-09-29T09:58:34.409Z,21.30
2022-09-29T10:01:16.166Z,15.90
2022-09-29T10:04:00.145Z,17.90
2022-09-29T10:06:42.655Z,19.60
2022-09-29T10:09:24.375Z,19.00
2022-09-29T10:12:06.244Z,14.80
2022-09-29T10:14:53.977Z,16.10
2022-09-29T10:17:42.539Z,18.40
2022-09-29T10:20:36.677Z,16.70
2022-09-29T10:23:29.143Z,20.30
2022-09-29T10:26:21.056Z,17.10
2022-09-29T10:29:18.283Z,20.60
2022-09-29T10:32:10.479Z,16.20
2022-09-29T10:35:02.306Z,20.90
2022-09-29T10:37:48.299Z,17.60
2022-09-29T10:40:30.089Z,17.90
2022-09-29T10:43:25.207Z,17.70
2022-09-29T10:47:14.157Z,19.90
2022-09-29T10:50:37.763Z,22.20
2022-09-29T10:53:25.796Z,25.60
2022-09-29T10:56:17.426Z,21.80
2022-09-29T10:59:05.648Z,23.10
2022-09-29T11:01:57.270Z,17.70
2022-09-29T11:04:41.179Z,24.80
2022-09-29T11:07:23.003Z,21.80
2022-09-29T11:10:05.617Z,23.10
2022-09-29T11:12:49.354Z,20.60
2022-09-29T11:15:40.850Z,19.60
2022-09-29T11:18:34.344Z,19.20
2022-09-29T11:21:21.872Z,17.10
2022-09-29T11:24:20.971Z,17.90
2022-09-29T11:27:18.536Z,23.30
2022-09-29T11:30:20.671Z,20.30
2022-09-29T11:33:21.111Z,19.20
2022-09-29T11:36:27.722Z,18.60
2022-09-29T11:39:28.344Z,20.20
2022-09-29T11:42:34.999Z,17.00
2022-09-29T11:45:24.954Z,15.90
2022-09-29T11:48:34.448Z,18.30
2022-09-29T11:51:28.667Z,18.50
2022-09-29T11:54:31.336Z,15.20
2022-09-29T11:57:49.395Z,16.60
2022-09-29T12:00:31.970Z,18.40
2022-09-29T12:03:37.642Z,17.40
2022-09-29T12:06:44.097Z,22.80
2022-09-29T12:09:41.130Z,15.30
2022-09-29T12:15:49.689Z,31.40
2022-09-29T12:18:43.051Z,19.50
2022-09-29T12:21:33.549Z,26.60
2022-09-29T12:27:12.700Z,23.80
2022-09-29T12:30:05.288Z,19.20
2022-09-29T12:32:57.815Z,18.10
2022-09-29T12:35:53.203Z,14.70
2022-09-29T12:38:42.337Z,13.20
2022-09-29T12:41:29.489Z,15.80
2022-09-29T12:44:16.779Z,16.90
2022-09-29T12:47:12.839Z,21.30
2022-09-29T12:50:17.031Z,18.80
2022-09-29T12:53:09.306Z,15.10
2022-09-29T12:56:15.194Z,19.10
2022-09-29T12:59:04.011Z,15.60
2022-09-29T13:01:50.925Z,16.40
2022-09-29T13:05:02.825Z,20.10
2022-09-29T13:07:54.655Z,17.20
2022-09-29T13:11:11.672Z,15.20
2022-09-29T13:14:23.776Z,13.70
2022-09-29T13:17:21.134Z,15.40
2022-09-29T13:20:28.899Z,17.10
2022-09-29T13:23:25.682Z,14.50
2022-09-29T13:26:31.232Z,16.20
2022-09-29T13:29:32.685Z,12.50
2022-09-29T13:32:16.119Z,13.30
2022-09-29T13:35:01.243Z,18.20
2022-09-29T13:37:54.019Z,14.10
2022-09-29T13:40:35.733Z,14.40
2022-09-29T13:43:37.699Z,16.60
2022-09-29T13:46:31.785Z,14.60
2022-09-29T13:49:23.920Z,12.00
2022-09-29T13:52:11.908Z,12.60
2022-09-29T13:54:53.555Z,15.50
2022-09-29T13:57:35.542Z,17.60
2022-09-29T14:00:19.177Z,24.30
2022-09-29T14:03:04.249Z,18.00
2022-09-29T14:05:47.602Z,13.70
2022-09-29T14:08:35.242Z,15.10
2022-09-29T14:11:40.919Z,18.50
2022-09-29T14:14:27.028Z,15.70
2022-09-29T14:17:17.450Z,16.00
2022-09-29T14:23:02.473Z,16.40
2022-09-29T14:25:44.131Z,17.70
2022-09-29T14:28:35.064Z,17.30
2022-09-29T14:31:24.724Z,21.50
2022-09-29T14:34:13.496Z,19.20
2022-09-29T14:37:07.259Z,16.10
2022-09-29T14:40:09.826Z,16.20
2022-09-29T14:43:06.570Z,16.30
2022-09-29T14:46:13.106Z,15.60
2022-09-29T14:49:55.661Z,31.10
2022-09-29T14:52:56.246Z,42.60
2022-09-29T14:55:54.783Z,17.30
2022-09-29T14:59:18.894Z,15.10
2022-09-29T15:02:21.067Z,18.60
2022-09-29T15:05:29.993Z,14.80
2022-09-29T15:08:36.745Z,18.40
2022-09-29T15:11:26.992Z,16.60
2022-09-29T15:14:20.809Z,21.70
2022-09-29T15:17:21.491Z,66.40
2022-09-29T15:20:11.538Z,18.10
2022-09-29T15:23:08.693Z,14.50
2022-09-29T15:25:55.865Z,19.10
2022-09-29T15:28:39.548Z,20.00
2022-09-29T15:31:29.591Z,18.00
2022-09-29T15:34:20.526Z,18.00
2022-09-29T15:37:05.675Z,17.70
2022-09-29T15:39:51.585Z,16.70
2022-09-29T15:42:37.619Z,18.40
2022-09-29T15:45:27.776Z,18.80
2022-09-29T15:48:14.778Z,25.00
2022-09-29T15:50:58.758Z,32.40
2022-09-29T15:53:41.010Z,32.00
2022-09-29T15:56:24.719Z,26.60
2022-09-29T15:59:18.357Z,22.80
2022-09-29T16:02:05.946Z,23.30
2022-09-29T16:04:51.671Z,21.80
2022-09-29T16:07:39.100Z,20.70
2022-09-29T16:10:23.245Z,29.60
2022-09-29T16:13:11.369Z,181.80
2022-09-29T16:16:01.359Z,247.60
2022-09-29T16:18:49.158Z,136.50
2022-09-29T16:21:38.614Z,132.80
2022-09-29T16:24:21.210Z,109.20
2022-09-29T16:27:04.252Z,80.80
2022-09-29T16:29:46.952Z,75.60
2022-09-29T16:32:42.056Z,89.10
2022-09-29T16:35:49.230Z,89.80
2022-09-29T16:38:44.347Z,101.00
2022-09-29T16:42:05.653Z,118.60
2022-09-29T16:44:52.056Z,86.50
2022-09-29T16:47:36.300Z,60.00
2022-09-29T16:50:20.141Z,44.70
2022-09-29T16:53:01.934Z,35.60
2022-09-29T16:55:59.809Z,32.10
2022-09-29T16:58:41.700Z,30.60
2022-09-29T17:01:26.071Z,26.00
2022-09-29T17:04:10.614Z,32.50
2022-09-29T17:06:52.509Z,43.10
2022-09-29T17:09:34.874Z,35.40
2022-09-29T17:12:17.754Z,37.60
2022-09-29T17:14:59.887Z,38.20
2022-09-29T17:17:43.736Z,44.50
2022-09-29T17:20:30.178Z,44.90
2022-09-29T17:23:12.556Z,69.70
2022-09-29T17:26:14.450Z,78.80
2022-09-29T17:28:56.140Z,83.80
2022-09-29T17:31:38.036Z,57.20
2022-09-29T17:34:25.621Z,54.20
2022-09-29T17:37:11.421Z,49.00
2022-09-29T17:39:54.073Z,39.60
2022-09-29T17:42:35.726Z,34.80
2022-09-29T17:45:19.808Z,31.80
2022-09-29T17:48:02.932Z,26.30
2022-09-29T17:50:50.922Z,23.10
2022-09-29T17:53:32.590Z,19.50
2022-09-29T17:56:22.501Z,19.70
2022-09-29T17:59:06.091Z,23.20
2022-09-29T18:01:51.054Z,22.50
2022-09-29T18:04:35.294Z,23.00
2022-09-29T18:07:17.202Z,26.10
2022-09-29T18:09:59.392Z,25.80
2022-09-29T18:12:41.083Z,25.10
2022-09-29T18:15:23.701Z,21.40
2022-09-29T18:18:07.743Z,21.60
2022-09-29T18:20:50.836Z,21.30
2022-09-29T18:23:32.557Z,25.70
2022-09-29T18:26:15.579Z,25.20
2022-09-29T18:28:58.806Z,25.10
2022-09-29T18:31:40.624Z,24.20
2022-09-29T18:34:30.030Z,23.70
2022-09-29T18:37:17.623Z,43.60
2022-09-29T18:40:00.756Z,56.10
2022-09-29T18:42:45.875Z,53.60
2022-09-29T18:45:31.402Z,57.40
2022-09-29T18:48:16.037Z,55.00
2022-09-29T18:50:57.934Z,60.00
2022-09-29T18:53:42.221Z,82.60
2022-09-29T18:56:24.797Z,98.70
2022-09-29T18:59:10.236Z,93.90
2022-09-29T19:01:52.415Z,82.10
2022-09-29T19:04:34.785Z,94.80
2022-09-29T19:07:16.885Z,87.50
2022-09-29T19:09:58.576Z,89.40
2022-09-29T19:12:45.497Z,80.20
2022-09-29T19:15:32.993Z,81.20
2022-09-29T19:18:23.903Z,87.60
2022-09-29T19:21:13.338Z,82.40
2022-09-29T19:23:58.029Z,94.50
2022-09-29T19:26:40.935Z,85.40
2022-09-29T19:29:23.514Z,101.60
2022-09-29T19:32:06.989Z,87.10
2022-09-29T19:34:51.303Z,110.10
2022-09-29T19:37:35.601Z,140.30
2022-09-29T19:40:22.854Z,186.50
2022-09-29T19:43:05.897Z,208.20
2022-09-29T19:45:47.867Z,197.50
2022-09-29T19:48:29.502Z,198.80
2022-09-29T19:51:33.572Z,171.10
2022-09-29T19:54:20.449Z,152.60
2022-09-29T19:57:08.064Z,145.60
2022-09-29T19:59:49.808Z,139.00
2022-09-29T20:02:31.565Z,134.10
2022-09-29T20:05:14.885Z,112.30
2022-09-29T20:07:56.929Z,115.10
2022-09-29T20:10:41.898Z,106.60
2022-09-29T20:13:24.303Z,107.90
2022-09-29T20:16:08.511Z,116.00
2022-09-29T20:18:50.858Z,112.10
2022-09-29T20:21:35.245Z,110.30
2022-09-29T20:24:20.258Z,119.40
2022-09-29T20:27:03.407Z,120.80
2022-09-29T20:29:45.200Z,140.90
2022-09-29T20:32:28.735Z,149.80
2022-09-29T20:35:10.425Z,151.50
2022-09-29T20:37:52.115Z,146.20
2022-09-29T20:40:33.807Z,159.70
2022-09-29T20:43:15.497Z,177.80
2022-09-29T20:46:05.154Z,179.80
2022-09-29T20:48:52.047Z,178.80
2022-09-29T20:51:37.880Z,168.00
2022-09-29T20:54:20.987Z,157.30
2022-09-29T20:57:03.819Z,147.60
2022-09-29T20:59:45.517Z,133.10
2022-09-29T21:02:27.480Z,165.30
2022-09-29T21:05:09.300Z,172.10
2022-09-29T21:07:50.992Z,200.90
2022-09-29T21:10:32.681Z,208.70
2022-09-29T21:13:15.706Z,226.70
2022-09-29T21:15:58.464Z,212.20
2022-09-29T21:18:40.316Z,246.00
2022-09-29T21:21:22.211Z,166.80
2022-09-29T21:24:04.311Z,137.40
2022-09-29T21:26:46.923Z,126.40
2022-09-29T21:29:28.821Z,131.10
2022-09-29T21:32:10.644Z,132.90
2022-09-29T21:34:52.303Z,123.80
2022-09-29T21:37:34.404Z,127.40
2022-09-29T21:40:16.096Z,118.10
2022-09-29T21:42:57.786Z,117.40
2022-09-29T21:45:39.477Z,124.30
2022-09-29T21:48:21.678Z,118.70
2022-09-29T21:51:07.571Z,130.10
2022-09-29T21:53:49.367Z,142.80
2022-09-29T21:56:35.354Z,154.40
2022-09-29T21:59:19.309Z,166.20
2022-09-29T22:02:01.075Z,159.00
2022-09-29T22:04:42.884Z,168.60
2022-09-29T22:07:24.676Z,164.40
2022-09-29T22:10:06.982Z,154.90
2022-09-29T22:12:48.606Z,154.80
2022-09-29T22:15:33.438Z,135.00
2022-09-29T22:18:15.126Z,122.80
2022-09-29T22:21:01.630Z,113.60
2022-09-29T22:23:44.448Z,130.30
2022-09-29T22:26:26.650Z,104.70
2022-09-29T22:29:08.344Z,107.40
2022-09-29T22:31:50.269Z,114.20
2022-09-29T22:34:32.032Z,110.20
2022-09-29T22:37:13.823Z,101.50
2022-09-29T22:39:55.516Z,98.60
2022-09-29T22:42:37.513Z,94.40
2022-09-29T22:45:19.206Z,89.70
2022-09-29T22:48:01.101Z,89.10
2022-09-29T22:50:45.585Z,86.20
2022-09-29T22:53:27.247Z,75.70
2022-09-29T22:56:17.027Z,78.90
2022-09-29T22:59:01.573Z,76.00
2022-09-29T23:01:43.565Z,72.80
2022-09-29T23:04:25.662Z,81.30
2022-09-29T23:07:08.706Z,78.00
2022-09-29T23:09:50.490Z,73.30
2022-09-29T23:12:32.497Z,78.50
2022-09-29T23:15:14.189Z,72.10
2022-09-29T23:17:55.879Z,71.10
2022-09-29T23:20:37.570Z,80.90
2022-09-29T23:23:19.262Z,86.10
2022-09-29T23:26:00.951Z,75.00
2022-09-29T23:28:43.052Z,75.00
2022-09-29T23:31:25.208Z,76.90
2022-09-29T23:34:06.946Z,79.40
2022-09-29T23:36:48.638Z,75.30
2022-09-29T23:39:30.533Z,69.10
2022-09-29T23:42:13.604Z,70.30
2022-09-29T23:44:55.449Z,66.00
2022-09-29T23:47:37.108Z,73.30
2022-09-29T23:50:19.139Z,70.90
2022-09-29T23:53:00.936Z,66.60
2022-09-29T23:55:42.529Z,69.60
2022-09-29T23:58:24.621Z,73.30
